sensor_id;sensor_type;location;lat;lon;timestamp;pressure;altitude;pressure_sealevel;temperature;humidity
54389;BME280;40975;50.390;8.640;2022-08-14T00:01:55;98844.78;;;17.50;92.39
54389;BME280;40975;50.390;8.640;2022-08-14T00:04:24;98843.31;;;17.54;92.79
54389;BME280;40975;50.390;8.640;2022-08-14T00:06:49;98836.69;;;17.43;92.84
54389;BME280;40975;50.390;8.640;2022-08-14T00:09:14;98839.75;;;17.40;94.22
54389;BME280;40975;50.390;8.640;2022-08-14T00:11:40;98841.19;;;17.36;94.61
54389;BME280;40975;50.390;8.640;2022-08-14T00:14:05;98832.25;;;17.29;94.41
54389;BME280;40975;50.390;8.640;2022-08-14T00:16:30;98834.97;;;17.35;94.97
54389;BME280;40975;50.390;8.640;2022-08-14T00:18:56;98824.81;;;17.24;95.19
54389;BME280;40975;50.390;8.640;2022-08-14T00:21:22;98827.75;;;17.29;95.07
54389;BME280;40975;50.390;8.640;2022-08-14T00:23:47;98831.81;;;17.25;96.36
54389;BME280;40975;50.390;8.640;2022-08-14T00:26:14;98829.41;;;17.30;95.79
54389;BME280;40975;50.390;8.640;2022-08-14T00:28:39;98811.41;;;17.24;96.68
54389;BME280;40975;50.390;8.640;2022-08-14T00:31:05;98816.81;;;17.31;96.74
54389;BME280;40975;50.390;8.640;2022-08-14T00:33:31;98820.72;;;17.28;96.90
54389;BME280;40975;50.390;8.640;2022-08-14T00:35:57;98820.91;;;17.27;96.49
54389;BME280;40975;50.390;8.640;2022-08-14T00:38:22;98819.22;;;17.19;96.28
54389;BME280;40975;50.390;8.640;2022-08-14T00:40:48;98813.22;;;17.17;96.76
54389;BME280;40975;50.390;8.640;2022-08-14T00:43:14;98804.75;;;17.13;97.42
54389;BME280;40975;50.390;8.640;2022-08-14T00:45:40;98805.34;;;17.08;97.48
54389;BME280;40975;50.390;8.640;2022-08-14T00:48:05;98805.56;;;17.14;98.56
54389;BME280;40975;50.390;8.640;2022-08-14T00:50:31;98805.50;;;17.07;98.28
54389;BME280;40975;50.390;8.640;2022-08-14T00:52:58;98802.75;;;16.93;98.63
54389;BME280;40975;50.390;8.640;2022-08-14T00:55:28;98804.66;;;16.78;98.91
54389;BME280;40975;50.390;8.640;2022-08-14T00:57:54;98793.94;;;16.78;98.18
54389;BME280;40975;50.390;8.640;2022-08-14T01:00:39;98791.69;;;16.75;100.00
54389;BME280;40975;50.390;8.640;2022-08-14T01:03:06;98788.34;;;16.73;100.00
54389;BME280;40975;50.390;8.640;2022-08-14T01:05:33;98785.47;;;16.74;100.00
54389;BME280;40975;50.390;8.640;2022-08-14T01:07:59;98780.13;;;16.74;100.00
54389;BME280;40975;50.390;8.640;2022-08-14T01:10:26;98778.88;;;16.77;100.00
54389;BME280;40975;50.390;8.640;2022-08-14T01:13:13;98776.63;;;16.74;100.00
54389;BME280;40975;50.390;8.640;2022-08-14T01:15:44;98776.19;;;16.70;100.00
54389;BME280;40975;50.390;8.640;2022-08-14T01:18:11;98766.50;;;16.69;100.00
54389;BME280;40975;50.390;8.640;2022-08-14T01:20:56;98768.72;;;16.66;100.00
54389;BME280;40975;50.390;8.640;2022-08-14T01:23:29;98765.22;;;16.65;100.00
54389;BME280;40975;50.390;8.640;2022-08-14T01:25:55;98768.47;;;16.60;100.00
54389;BME280;40975;50.390;8.640;2022-08-14T01:28:21;98766.63;;;16.61;100.00
54389;BME280;40975;50.390;8.640;2022-08-14T01:30:47;98758.41;;;16.62;100.00
54389;BME280;40975;50.390;8.640;2022-08-14T01:33:14;98760.44;;;16.60;100.00
54389;BME280;40975;50.390;8.640;2022-08-14T01:35:40;98745.53;;;16.51;100.00
54389;BME280;40975;50.390;8.640;2022-08-14T01:38:13;98761.75;;;16.43;100.00
54389;BME280;40975;50.390;8.640;2022-08-14T01:40:40;98757.78;;;16.39;100.00
54389;BME280;40975;50.390;8.640;2022-08-14T01:43:10;98759.66;;;16.38;100.00
54389;BME280;40975;50.390;8.640;2022-08-14T01:45:43;98754.94;;;16.40;100.00
54389;BME280;40975;50.390;8.640;2022-08-14T01:48:09;98760.47;;;16.39;100.00
54389;BME280;40975;50.390;8.640;2022-08-14T01:50:35;98755.09;;;16.39;100.00
54389;BME280;40975;50.390;8.640;2022-08-14T01:53:02;98753.50;;;16.44;100.00
54389;BME280;40975;50.390;8.640;2022-08-14T01:55:29;98742.41;;;16.47;100.00
54389;BME280;40975;50.390;8.640;2022-08-14T01:57:56;98746.75;;;16.48;100.00
54389;BME280;40975;50.390;8.640;2022-08-14T02:00:23;98742.78;;;16.44;100.00
54389;BME280;40975;50.390;8.640;2022-08-14T02:02:49;98739.25;;;16.37;100.00
54389;BME280;40975;50.390;8.640;2022-08-14T02:05:14;98734.09;;;16.36;100.00
54389;BME280;40975;50.390;8.640;2022-08-14T02:07:41;98730.34;;;16.30;100.00
54389;BME280;40975;50.390;8.640;2022-08-14T02:10:09;98738.38;;;16.30;100.00
54389;BME280;40975;50.390;8.640;2022-08-14T02:12:36;98727.06;;;16.35;100.00
54389;BME280;40975;50.390;8.640;2022-08-14T02:15:03;98728.69;;;16.29;100.00
54389;BME280;40975;50.390;8.640;2022-08-14T02:17:32;98722.47;;;16.28;100.00
54389;BME280;40975;50.390;8.640;2022-08-14T02:19:57;98723.50;;;16.27;100.00
54389;BME280;40975;50.390;8.640;2022-08-14T02:22:22;98717.25;;;16.20;100.00
54389;BME280;40975;50.390;8.640;2022-08-14T02:24:48;98711.84;;;16.13;100.00
54389;BME280;40975;50.390;8.640;2022-08-14T02:27:13;98704.16;;;16.04;100.00
54389;BME280;40975;50.390;8.640;2022-08-14T02:29:39;98702.22;;;15.97;100.00
54389;BME280;40975;50.390;8.640;2022-08-14T02:32:05;98693.38;;;15.97;100.00
54389;BME280;40975;50.390;8.640;2022-08-14T02:34:35;98693.59;;;15.95;100.00
54389;BME280;40975;50.390;8.640;2022-08-14T02:37:09;98687.06;;;15.83;100.00
54389;BME280;40975;50.390;8.640;2022-08-14T02:39:43;98682.41;;;15.70;100.00
54389;BME280;40975;50.390;8.640;2022-08-14T02:42:13;98686.09;;;15.69;100.00
54389;BME280;40975;50.390;8.640;2022-08-14T02:44:43;98681.56;;;15.69;100.00
54389;BME280;40975;50.390;8.640;2022-08-14T02:47:08;98671.50;;;15.72;100.00
54389;BME280;40975;50.390;8.640;2022-08-14T02:49:34;98669.22;;;15.68;100.00
54389;BME280;40975;50.390;8.640;2022-08-14T02:52:01;98655.84;;;15.68;100.00
54389;BME280;40975;50.390;8.640;2022-08-14T02:54:27;98656.69;;;15.69;100.00
54389;BME280;40975;50.390;8.640;2022-08-14T02:56:56;98661.59;;;15.65;100.00
54389;BME280;40975;50.390;8.640;2022-08-14T02:59:24;98658.63;;;15.60;100.00
54389;BME280;40975;50.390;8.640;2022-08-14T03:01:52;98646.69;;;15.56;100.00
54389;BME280;40975;50.390;8.640;2022-08-14T03:04:18;98641.50;;;15.54;100.00
54389;BME280;40975;50.390;8.640;2022-08-14T03:06:45;98642.06;;;15.50;100.00
54389;BME280;40975;50.390;8.640;2022-08-14T03:09:11;98641.25;;;15.49;100.00
54389;BME280;40975;50.390;8.640;2022-08-14T03:11:37;98642.91;;;15.50;100.00
54389;BME280;40975;50.390;8.640;2022-08-14T03:14:04;98644.38;;;15.53;100.00
54389;BME280;40975;50.390;8.640;2022-08-14T03:16:30;98628.06;;;15.48;100.00
54389;BME280;40975;50.390;8.640;2022-08-14T03:19:00;98633.25;;;15.49;100.00
54389;BME280;40975;50.390;8.640;2022-08-14T03:21:26;98636.94;;;15.48;100.00
54389;BME280;40975;50.390;8.640;2022-08-14T03:23:54;98638.97;;;15.46;100.00
54389;BME280;40975;50.390;8.640;2022-08-14T03:26:39;98639.09;;;15.38;100.00
54389;BME280;40975;50.390;8.640;2022-08-14T03:29:06;98639.72;;;15.40;100.00
54389;BME280;40975;50.390;8.640;2022-08-14T03:31:32;98639.53;;;15.42;100.00
54389;BME280;40975;50.390;8.640;2022-08-14T03:33:58;98640.28;;;15.35;100.00
54389;BME280;40975;50.390;8.640;2022-08-14T03:36:23;98645.19;;;15.32;100.00
54389;BME280;40975;50.390;8.640;2022-08-14T03:38:50;98637.78;;;15.34;100.00
54389;BME280;40975;50.390;8.640;2022-08-14T03:41:22;98631.84;;;15.32;100.00
54389;BME280;40975;50.390;8.640;2022-08-14T03:43:54;98635.53;;;15.31;100.00
54389;BME280;40975;50.390;8.640;2022-08-14T03:46:21;98633.09;;;15.36;100.00
54389;BME280;40975;50.390;8.640;2022-08-14T03:48:47;98628.31;;;15.31;100.00
54389;BME280;40975;50.390;8.640;2022-08-14T03:51:13;98622.91;;;15.24;100.00
54389;BME280;40975;50.390;8.640;2022-08-14T03:53:43;98631.09;;;15.23;100.00
54389;BME280;40975;50.390;8.640;2022-08-14T03:56:12;98639.34;;;15.21;100.00
54389;BME280;40975;50.390;8.640;2022-08-14T03:58:42;98635.81;;;15.21;100.00
54389;BME280;40975;50.390;8.640;2022-08-14T04:01:13;98631.22;;;15.15;100.00
54389;BME280;40975;50.390;8.640;2022-08-14T04:03:39;98639.25;;;15.15;100.00
54389;BME280;40975;50.390;8.640;2022-08-14T04:06:05;98641.06;;;15.14;100.00
54389;BME280;40975;50.390;8.640;2022-08-14T04:08:34;98636.38;;;15.16;100.00
54389;BME280;40975;50.390;8.640;2022-08-14T04:11:01;98633.50;;;15.18;100.00
54389;BME280;40975;50.390;8.640;2022-08-14T04:13:26;98629.44;;;15.22;100.00
54389;BME280;40975;50.390;8.640;2022-08-14T04:15:51;98624.75;;;15.24;100.00
54389;BME280;40975;50.390;8.640;2022-08-14T04:18:17;98631.09;;;15.23;100.00
54389;BME280;40975;50.390;8.640;2022-08-14T04:20:43;98630.25;;;15.22;100.00
54389;BME280;40975;50.390;8.640;2022-08-14T04:23:08;98618.00;;;15.28;100.00
54389;BME280;40975;50.390;8.640;2022-08-14T04:25:35;98619.66;;;15.29;100.00
54389;BME280;40975;50.390;8.640;2022-08-14T04:28:05;98620.50;;;15.30;100.00
54389;BME280;40975;50.390;8.640;2022-08-14T04:30:31;98619.47;;;15.31;100.00
54389;BME280;40975;50.390;8.640;2022-08-14T04:32:57;98621.94;;;15.32;100.00
54389;BME280;40975;50.390;8.640;2022-08-14T04:35:23;98615.97;;;15.30;100.00
54389;BME280;40975;50.390;8.640;2022-08-14T04:37:48;98618.38;;;15.25;100.00
54389;BME280;40975;50.390;8.640;2022-08-14T04:40:32;98620.50;;;15.30;100.00
54389;BME280;40975;50.390;8.640;2022-08-14T04:43:17;98623.81;;;15.32;100.00
54389;BME280;40975;50.390;8.640;2022-08-14T04:46:02;98627.09;;;15.34;100.00
54389;BME280;40975;50.390;8.640;2022-08-14T04:48:27;98621.75;;;15.34;100.00
54389;BME280;40975;50.390;8.640;2022-08-14T04:50:53;98613.16;;;15.38;100.00
54389;BME280;40975;50.390;8.640;2022-08-14T04:53:24;98619.22;;;15.47;100.00
54389;BME280;40975;50.390;8.640;2022-08-14T04:55:51;98612.28;;;15.53;100.00
54389;BME280;40975;50.390;8.640;2022-08-14T04:58:25;98603.69;;;15.58;100.00
54389;BME280;40975;50.390;8.640;2022-08-14T05:00:52;98602.91;;;15.64;100.00
54389;BME280;40975;50.390;8.640;2022-08-14T05:03:28;98608.97;;;15.73;100.00
54389;BME280;40975;50.390;8.640;2022-08-14T05:05:57;98621.88;;;15.84;100.00
54389;BME280;40975;50.390;8.640;2022-08-14T05:08:23;98615.28;;;15.87;100.00
54389;BME280;40975;50.390;8.640;2022-08-14T05:10:54;98614.75;;;15.98;100.00
54389;BME280;40975;50.390;8.640;2022-08-14T05:13:24;98612.78;;;16.07;100.00
54389;BME280;40975;50.390;8.640;2022-08-14T05:15:50;98620.03;;;16.13;100.00
54389;BME280;40975;50.390;8.640;2022-08-14T05:18:28;98619.66;;;16.23;100.00
54389;BME280;40975;50.390;8.640;2022-08-14T05:20:55;98632.09;;;16.30;100.00
54389;BME280;40975;50.390;8.640;2022-08-14T05:23:24;98618.34;;;16.40;100.00
54389;BME280;40975;50.390;8.640;2022-08-14T05:25:51;98622.75;;;16.55;100.00
54389;BME280;40975;50.390;8.640;2022-08-14T05:28:21;98614.78;;;16.68;100.00
54389;BME280;40975;50.390;8.640;2022-08-14T05:30:52;98609.06;;;16.78;100.00
54389;BME280;40975;50.390;8.640;2022-08-14T05:33:19;98607.03;;;16.87;100.00
54389;BME280;40975;50.390;8.640;2022-08-14T05:35:46;98603.97;;;16.90;100.00
54389;BME280;40975;50.390;8.640;2022-08-14T05:38:15;98600.53;;;17.03;100.00
54389;BME280;40975;50.390;8.640;2022-08-14T05:40:44;98607.59;;;17.11;100.00
54389;BME280;40975;50.390;8.640;2022-08-14T05:43:11;98611.53;;;17.21;100.00
54389;BME280;40975;50.390;8.640;2022-08-14T05:45:37;98593.41;;;17.30;100.00
54389;BME280;40975;50.390;8.640;2022-08-14T05:48:03;98597.34;;;17.48;100.00
54389;BME280;40975;50.390;8.640;2022-08-14T05:50:30;98606.22;;;17.55;100.00
54389;BME280;40975;50.390;8.640;2022-08-14T05:52:55;98606.03;;;17.70;100.00
54389;BME280;40975;50.390;8.640;2022-08-14T05:55:21;98607.28;;;17.81;100.00
54389;BME280;40975;50.390;8.640;2022-08-14T05:57:56;98611.63;;;18.02;100.00
54389;BME280;40975;50.390;8.640;2022-08-14T06:00:24;98616.16;;;18.15;100.00
54389;BME280;40975;50.390;8.640;2022-08-14T06:02:50;98607.25;;;18.28;100.00
54389;BME280;40975;50.390;8.640;2022-08-14T06:05:15;98605.38;;;18.42;100.00
54389;BME280;40975;50.390;8.640;2022-08-14T06:07:41;98606.38;;;18.61;100.00
54389;BME280;40975;50.390;8.640;2022-08-14T06:10:08;98609.63;;;18.76;100.00
54389;BME280;40975;50.390;8.640;2022-08-14T06:12:35;98605.03;;;18.90;100.00
54389;BME280;40975;50.390;8.640;2022-08-14T06:15:00;98601.88;;;19.07;100.00
54389;BME280;40975;50.390;8.640;2022-08-14T06:17:26;98608.75;;;19.35;100.00
54389;BME280;40975;50.390;8.640;2022-08-14T06:19:51;98605.88;;;19.62;100.00
54389;BME280;40975;50.390;8.640;2022-08-14T06:22:17;98598.63;;;19.94;100.00
54389;BME280;40975;50.390;8.640;2022-08-14T06:24:42;98605.38;;;20.47;97.98
54389;BME280;40975;50.390;8.640;2022-08-14T06:27:07;98594.53;;;20.91;94.62
54389;BME280;40975;50.390;8.640;2022-08-14T06:29:33;98589.09;;;21.40;91.31
54389;BME280;40975;50.390;8.640;2022-08-14T06:31:59;98581.00;;;21.95;87.86
54389;BME280;40975;50.390;8.640;2022-08-14T06:34:25;98589.22;;;22.00;87.46
54389;BME280;40975;50.390;8.640;2022-08-14T06:36:50;98591.91;;;22.12;86.76
54389;BME280;40975;50.390;8.640;2022-08-14T06:39:15;98590.72;;;22.31;86.75
54389;BME280;40975;50.390;8.640;2022-08-14T06:41:41;98597.44;;;22.52;87.08
54389;BME280;40975;50.390;8.640;2022-08-14T06:44:09;98586.16;;;22.44;86.24
54389;BME280;40975;50.390;8.640;2022-08-14T06:46:35;98578.97;;;22.38;87.11
54389;BME280;40975;50.390;8.640;2022-08-14T06:49:00;98583.47;;;22.44;86.86
54389;BME280;40975;50.390;8.640;2022-08-14T06:51:25;98592.19;;;22.87;84.90
54389;BME280;40975;50.390;8.640;2022-08-14T06:53:51;98594.66;;;23.17;82.93
54389;BME280;40975;50.390;8.640;2022-08-14T06:56:16;98592.66;;;23.87;79.94
54389;BME280;40975;50.390;8.640;2022-08-14T06:58:41;98588.91;;;24.45;77.50
54389;BME280;40975;50.390;8.640;2022-08-14T07:01:07;98588.00;;;24.78;75.59
54389;BME280;40975;50.390;8.640;2022-08-14T07:03:50;98589.75;;;25.12;74.00
54389;BME280;40975;50.390;8.640;2022-08-14T07:09:09;98588.44;;;25.74;72.30
54389;BME280;40975;50.390;8.640;2022-08-14T07:11:35;98585.72;;;26.55;68.66
54389;BME280;40975;50.390;8.640;2022-08-14T07:14:00;98572.88;;;26.98;67.33
54389;BME280;40975;50.390;8.640;2022-08-14T07:16:26;98581.91;;;27.35;65.12
54389;BME280;40975;50.390;8.640;2022-08-14T07:18:51;98580.88;;;28.24;63.27
54389;BME280;40975;50.390;8.640;2022-08-14T07:21:16;98564.63;;;28.69;60.91
54389;BME280;40975;50.390;8.640;2022-08-14T07:23:42;98565.56;;;29.04;59.38
54389;BME280;40975;50.390;8.640;2022-08-14T07:26:07;98564.28;;;29.31;59.29
54389;BME280;40975;50.390;8.640;2022-08-14T07:28:36;98563.31;;;29.56;57.68
54389;BME280;40975;50.390;8.640;2022-08-14T07:31:05;98561.66;;;28.60;59.47
54389;BME280;40975;50.390;8.640;2022-08-14T07:33:35;98556.44;;;28.74;59.66
54389;BME280;40975;50.390;8.640;2022-08-14T07:36:02;98552.75;;;28.99;58.77
54389;BME280;40975;50.390;8.640;2022-08-14T07:38:28;98545.25;;;29.55;57.54
54389;BME280;40975;50.390;8.640;2022-08-14T07:40:54;98534.94;;;29.47;57.19
54389;BME280;40975;50.390;8.640;2022-08-14T07:43:20;98537.38;;;29.09;58.18
54389;BME280;40975;50.390;8.640;2022-08-14T07:45:46;98534.09;;;29.12;58.75
54389;BME280;40975;50.390;8.640;2022-08-14T07:48:12;98530.09;;;28.94;58.66
54389;BME280;40975;50.390;8.640;2022-08-14T07:50:37;98522.56;;;27.84;61.19
54389;BME280;40975;50.390;8.640;2022-08-14T07:53:04;98531.06;;;28.58;60.06
54389;BME280;40975;50.390;8.640;2022-08-14T07:55:31;98522.09;;;29.08;58.94
54389;BME280;40975;50.390;8.640;2022-08-14T07:57:57;98521.16;;;28.83;58.88
54389;BME280;40975;50.390;8.640;2022-08-14T08:00:23;98520.78;;;29.00;59.09
54389;BME280;40975;50.390;8.640;2022-08-14T08:02:51;98511.94;;;29.83;55.79
54389;BME280;40975;50.390;8.640;2022-08-14T08:05:18;98512.34;;;30.73;51.79
54389;BME280;40975;50.390;8.640;2022-08-14T08:07:45;98515.06;;;30.92;51.37
54389;BME280;40975;50.390;8.640;2022-08-14T08:10:16;98516.59;;;32.03;47.23
54389;BME280;40975;50.390;8.640;2022-08-14T08:13:05;98527.78;;;32.62;45.96
54389;BME280;40975;50.390;8.640;2022-08-14T08:15:36;98533.34;;;32.85;45.16
54389;BME280;40975;50.390;8.640;2022-08-14T08:18:04;98537.22;;;33.21;43.88
54389;BME280;40975;50.390;8.640;2022-08-14T08:20:36;98533.84;;;33.69;42.56
54389;BME280;40975;50.390;8.640;2022-08-14T08:23:03;98530.88;;;34.20;41.31
54389;BME280;40975;50.390;8.640;2022-08-14T08:25:32;98532.88;;;34.37;40.39
54389;BME280;40975;50.390;8.640;2022-08-14T08:30:28;98531.28;;;35.20;38.44
54389;BME280;40975;50.390;8.640;2022-08-14T08:32:57;98528.66;;;35.50;37.85
54389;BME280;40975;50.390;8.640;2022-08-14T08:35:29;98532.16;;;36.03;35.63
54389;BME280;40975;50.390;8.640;2022-08-14T08:38:04;98525.34;;;36.31;35.75
54389;BME280;40975;50.390;8.640;2022-08-14T08:40:36;98526.09;;;35.27;36.94
54389;BME280;40975;50.390;8.640;2022-08-14T08:43:29;98523.00;;;35.29;37.42
54389;BME280;40975;50.390;8.640;2022-08-14T08:48:46;98526.72;;;36.54;34.79
54389;BME280;40975;50.390;8.640;2022-08-14T08:59:16;98523.81;;;37.69;33.17
54389;BME280;40975;50.390;8.640;2022-08-14T09:02:07;98524.78;;;37.18;32.98
54389;BME280;40975;50.390;8.640;2022-08-14T09:04:40;98517.84;;;37.67;32.54
54389;BME280;40975;50.390;8.640;2022-08-14T09:07:07;98505.22;;;38.53;31.15
54389;BME280;40975;50.390;8.640;2022-08-14T09:09:33;98508.00;;;38.16;30.88
54389;BME280;40975;50.390;8.640;2022-08-14T09:12:00;98515.28;;;38.08;31.26
54389;BME280;40975;50.390;8.640;2022-08-14T09:14:28;98510.31;;;38.26;31.43
54389;BME280;40975;50.390;8.640;2022-08-14T09:16:55;98502.47;;;37.24;32.25
54389;BME280;40975;50.390;8.640;2022-08-14T09:19:20;98499.22;;;38.63;30.81
54389;BME280;40975;50.390;8.640;2022-08-14T09:21:46;98499.69;;;38.16;31.78
54389;BME280;40975;50.390;8.640;2022-08-14T09:24:13;98501.25;;;39.19;30.48
54389;BME280;40975;50.390;8.640;2022-08-14T09:26:40;98498.09;;;38.27;31.03
54389;BME280;40975;50.390;8.640;2022-08-14T09:29:06;98496.44;;;38.51;31.34
54389;BME280;40975;50.390;8.640;2022-08-14T09:31:34;98508.47;;;38.55;30.49
54389;BME280;40975;50.390;8.640;2022-08-14T09:37:15;98488.44;;;39.27;30.88
54389;BME280;40975;50.390;8.640;2022-08-14T09:42:32;98476.88;;;40.18;29.46
54389;BME280;40975;50.390;8.640;2022-08-14T09:45:12;98474.28;;;39.93;29.04
54389;BME280;40975;50.390;8.640;2022-08-14T09:52:52;98469.91;;;39.31;28.72
54389;BME280;40975;50.390;8.640;2022-08-14T09:55:19;98471.25;;;39.38;29.37
54389;BME280;40975;50.390;8.640;2022-08-14T09:57:45;98469.91;;;39.31;29.08
54389;BME280;40975;50.390;8.640;2022-08-14T10:00:12;98470.22;;;39.74;30.12
54389;BME280;40975;50.390;8.640;2022-08-14T10:02:54;98456.50;;;39.21;29.64
54389;BME280;40975;50.390;8.640;2022-08-14T10:05:29;98449.69;;;39.95;28.26
54389;BME280;40975;50.390;8.640;2022-08-14T10:07:55;98449.16;;;40.57;28.25
54389;BME280;40975;50.390;8.640;2022-08-14T10:10:32;98442.25;;;39.67;28.44
54389;BME280;40975;50.390;8.640;2022-08-14T10:13:03;98452.22;;;40.00;27.82
54389;BME280;40975;50.390;8.640;2022-08-14T10:15:31;98446.13;;;39.18;28.31
54389;BME280;40975;50.390;8.640;2022-08-14T10:18:07;98442.63;;;39.65;28.53
54389;BME280;40975;50.390;8.640;2022-08-14T10:20:53;98436.50;;;39.72;28.17
54389;BME280;40975;50.390;8.640;2022-08-14T10:23:22;98436.44;;;40.04;28.51
54389;BME280;40975;50.390;8.640;2022-08-14T10:25:50;98421.75;;;39.56;28.16
54389;BME280;40975;50.390;8.640;2022-08-14T10:28:18;98418.78;;;38.76;29.38
54389;BME280;40975;50.390;8.640;2022-08-14T10:30:45;98416.06;;;38.63;29.25
54389;BME280;40975;50.390;8.640;2022-08-14T10:33:31;98402.06;;;39.29;28.59
54389;BME280;40975;50.390;8.640;2022-08-14T10:35:59;98400.72;;;38.53;29.28
54389;BME280;40975;50.390;8.640;2022-08-14T10:38:33;98390.13;;;38.84;29.15
54389;BME280;40975;50.390;8.640;2022-08-14T10:43:37;98395.50;;;37.61;29.91
54389;BME280;40975;50.390;8.640;2022-08-14T10:46:11;98385.97;;;36.92;30.74
54389;BME280;40975;50.390;8.640;2022-08-14T10:48:37;98388.75;;;36.49;31.75
54389;BME280;40975;50.390;8.640;2022-08-14T10:51:02;98400.38;;;36.43;31.31
54389;BME280;40975;50.390;8.640;2022-08-14T10:53:30;98400.13;;;35.67;32.41
54389;BME280;40975;50.390;8.640;2022-08-14T10:55:58;98390.78;;;36.61;30.93
54389;BME280;40975;50.390;8.640;2022-08-14T10:58:29;98387.19;;;36.61;30.95
54389;BME280;40975;50.390;8.640;2022-08-14T11:00:58;98386.16;;;35.07;32.14
54389;BME280;40975;50.390;8.640;2022-08-14T11:03:36;98383.06;;;36.03;30.72
54389;BME280;40975;50.390;8.640;2022-08-14T11:06:18;98385.00;;;35.64;31.59
54389;BME280;40975;50.390;8.640;2022-08-14T11:08:47;98383.91;;;35.95;32.09
54389;BME280;40975;50.390;8.640;2022-08-14T11:11:14;98375.38;;;36.09;31.42
54389;BME280;40975;50.390;8.640;2022-08-14T11:13:41;98373.25;;;35.37;32.28
54389;BME280;40975;50.390;8.640;2022-08-14T11:16:13;98373.38;;;34.93;33.72
54389;BME280;40975;50.390;8.640;2022-08-14T11:18:43;98375.97;;;34.63;33.46
54389;BME280;40975;50.390;8.640;2022-08-14T11:21:11;98372.53;;;34.75;33.13
54389;BME280;40975;50.390;8.640;2022-08-14T11:23:38;98352.63;;;34.52;33.35
54389;BME280;40975;50.390;8.640;2022-08-14T11:26:05;98366.44;;;34.43;34.07
54389;BME280;40975;50.390;8.640;2022-08-14T11:28:33;98371.25;;;34.81;33.28
54389;BME280;40975;50.390;8.640;2022-08-14T11:31:01;98371.22;;;34.90;32.82
54389;BME280;40975;50.390;8.640;2022-08-14T11:33:28;98379.28;;;33.58;35.00
54389;BME280;40975;50.390;8.640;2022-08-14T11:35:57;98369.66;;;32.70;35.89
54389;BME280;40975;50.390;8.640;2022-08-14T11:38:26;98362.25;;;31.83;37.28
54389;BME280;40975;50.390;8.640;2022-08-14T11:40:55;98360.41;;;31.64;38.74
54389;BME280;40975;50.390;8.640;2022-08-14T11:43:21;98352.78;;;31.47;38.54
54389;BME280;40975;50.390;8.640;2022-08-14T11:45:46;98352.50;;;31.91;38.55
54389;BME280;40975;50.390;8.640;2022-08-14T11:48:19;98344.78;;;31.93;38.51
54389;BME280;40975;50.390;8.640;2022-08-14T11:50:46;98340.09;;;32.67;36.85
54389;BME280;40975;50.390;8.640;2022-08-14T11:53:22;98320.66;;;33.40;34.90
54389;BME280;40975;50.390;8.640;2022-08-14T11:55:55;98323.88;;;33.74;35.27
54389;BME280;40975;50.390;8.640;2022-08-14T11:58:25;98328.72;;;33.86;34.27
54389;BME280;40975;50.390;8.640;2022-08-14T12:00:54;98319.13;;;33.25;34.57
54389;BME280;40975;50.390;8.640;2022-08-14T12:06:11;98318.06;;;33.04;34.43
54389;BME280;40975;50.390;8.640;2022-08-14T12:08:38;98310.38;;;32.92;34.76
54389;BME280;40975;50.390;8.640;2022-08-14T12:11:08;98309.31;;;33.33;35.02
54389;BME280;40975;50.390;8.640;2022-08-14T12:13:34;98310.88;;;32.25;35.68
54389;BME280;40975;50.390;8.640;2022-08-14T12:16:04;98299.66;;;32.81;35.06
54389;BME280;40975;50.390;8.640;2022-08-14T12:18:37;98295.38;;;32.44;35.53
54389;BME280;40975;50.390;8.640;2022-08-14T12:23:44;98279.94;;;33.11;34.29
54389;BME280;40975;50.390;8.640;2022-08-14T12:26:17;98274.31;;;32.84;35.30
54389;BME280;40975;50.390;8.640;2022-08-14T12:29:12;98278.53;;;32.91;34.76
54389;BME280;40975;50.390;8.640;2022-08-14T12:31:39;98268.81;;;32.62;35.26
54389;BME280;40975;50.390;8.640;2022-08-14T12:34:07;98273.69;;;32.65;35.45
54389;BME280;40975;50.390;8.640;2022-08-14T12:36:33;98269.19;;;33.32;35.43
54389;BME280;40975;50.390;8.640;2022-08-14T12:39:02;98260.41;;;33.21;33.73
54389;BME280;40975;50.390;8.640;2022-08-14T12:41:30;98265.00;;;33.35;33.84
54389;BME280;40975;50.390;8.640;2022-08-14T12:44:00;98259.72;;;33.47;33.44
54389;BME280;40975;50.390;8.640;2022-08-14T12:46:31;98251.63;;;33.10;33.64
54389;BME280;40975;50.390;8.640;2022-08-14T12:49:00;98257.28;;;33.05;33.53
54389;BME280;40975;50.390;8.640;2022-08-14T12:51:28;98247.75;;;33.11;33.56
54389;BME280;40975;50.390;8.640;2022-08-14T12:53:57;98239.84;;;32.78;33.71
54389;BME280;40975;50.390;8.640;2022-08-14T12:56:23;98238.72;;;33.11;33.45
54389;BME280;40975;50.390;8.640;2022-08-14T12:58:55;98233.50;;;33.00;33.65
54389;BME280;40975;50.390;8.640;2022-08-14T13:01:26;98229.59;;;32.70;33.75
54389;BME280;40975;50.390;8.640;2022-08-14T13:04:20;98229.69;;;32.56;33.90
54389;BME280;40975;50.390;8.640;2022-08-14T13:06:46;98231.38;;;32.66;34.42
54389;BME280;40975;50.390;8.640;2022-08-14T13:09:13;98230.88;;;32.95;34.04
54389;BME280;40975;50.390;8.640;2022-08-14T13:11:44;98232.84;;;32.72;34.13
54389;BME280;40975;50.390;8.640;2022-08-14T13:14:12;98230.66;;;33.14;33.35
54389;BME280;40975;50.390;8.640;2022-08-14T13:16:39;98221.09;;;33.12;32.82
54389;BME280;40975;50.390;8.640;2022-08-14T13:19:14;98210.63;;;32.51;33.98
54389;BME280;40975;50.390;8.640;2022-08-14T13:21:45;98211.31;;;32.65;33.06
54389;BME280;40975;50.390;8.640;2022-08-14T13:24:12;98204.19;;;32.55;32.90
54389;BME280;40975;50.390;8.640;2022-08-14T13:26:43;98206.06;;;32.78;32.20
54389;BME280;40975;50.390;8.640;2022-08-14T13:29:09;98200.53;;;32.69;31.92
54389;BME280;40975;50.390;8.640;2022-08-14T13:31:36;98201.09;;;32.57;31.67
54389;BME280;40975;50.390;8.640;2022-08-14T13:34:04;98188.31;;;32.52;32.41
54389;BME280;40975;50.390;8.640;2022-08-14T13:36:30;98185.31;;;32.31;32.22
54389;BME280;40975;50.390;8.640;2022-08-14T13:38:56;98189.34;;;32.56;32.79